Date,TemperatureHighF,TemperatureAvgF,TemperatureLowF,DewpointHighF,DewpointAvgF,DewpointLowF,HumidityHigh,HumidityAvg,HumidityLow,PressureMaxIn,PressureMinIn,WindSpeedMaxMPH,WindSpeedAvgMPH,GustSpeedMaxMPH,PrecipitationSumIn
2013-8-1,86.0,78.3,73.6,79.9,74.3,72.0,95,88,74,30.04,29.95,5,1,5,0.10
2013-8-2,94.3,81.5,71.8,79.5,73.9,70.2,95,79,55,30.04,29.95,6,1,7,0.00
2013-8-3,98.1,82.6,74.2,81.6,75.5,71.9,93,81,50,30.05,29.96,5,1,7,0.59
2013-8-4,94.3,82.0,74.9,81.4,76.0,72.5,94,83,64,30.04,29.94,5,1,7,0.02
2013-8-5,96.5,82.2,74.0,81.2,75.0,71.6,93,80,54,30.01,29.93,6,1,7,0.00
2013-8-6,89.3,80.0,74.7,80.3,75.7,72.5,94,87,66,30.03,29.93,4,0,5,1.33
2013-8-7,92.9,81.3,74.3,77.6,73.3,68.5,95,78,58,30.04,29.97,5,1,7,0.00
2013-8-8,94.1,80.8,72.5,78.9,74.0,69.1,93,81,57,30.07,29.98,7,1,10,0.00
2013-8-9,96.5,82.9,73.6,78.8,74.6,71.5,94,78,47,30.12,30.00,4,1,7,0.00
2013-8-10,95.6,83.6,74.2,77.8,73.8,70.7,95,75,47,30.15,30.06,4,1,5,0.00
2013-8-11,97.2,84.4,75.4,80.9,75.7,72.9,93,77,51,30.17,30.06,4,1,6,0.00
2013-8-12,99.2,84.6,75.1,82.5,75.7,71.6,92,76,48,30.13,29.99,4,1,6,0.13
2013-8-13,96.5,83.9,75.2,80.4,74.9,72.2,93,76,51,30.03,29.88,5,1,7,0.12
2013-8-14,96.1,83.2,74.3,79.3,74.0,70.9,92,75,51,30.02,29.85,8,1,10,0.15
2013-8-15,91.1,75.2,71.8,80.5,71.5,69.4,95,89,65,30.05,29.95,6,1,6,1.45
2013-8-16,90.0,78.1,71.6,80.1,73.4,69.5,95,86,63,30.07,29.94,5,1,5,1.89
2013-8-17,87.1,78.0,71.3,78.7,74.1,68.9,95,88,72,30.16,30.02,4,1,7,3.77
2013-8-18,91.3,79.8,70.6,80.4,74.4,68.8,96,84,62,30.15,30.05,5,1,9,0.18
2013-8-19,94.5,81.3,73.1,79.9,75.2,70.0,95,83,56,30.12,29.99,4,1,6,1.49
2013-8-20,92.9,79.2,71.8,80.6,74.4,69.8,95,86,62,30.15,30.04,4,0,4,0.14
2013-8-21,86.9,77.6,73.4,80.5,74.6,71.9,95,91,77,30.18,30.11,2,0,2,0.05
2013-8-22,91.6,79.8,74.3,79.8,74.9,72.1,96,85,60,30.15,30.03,6,1,8,0.00
2013-8-23,94.9,79.4,71.6,78.7,73.6,69.9,95,83,53,30.07,30.00,6,1,6,0.00
2013-8-24,87.5,78.6,73.3,78.4,74.1,70.8,94,86,71,30.15,30.03,4,0,6,0.07
2013-8-25,89.1,81.2,72.4,75.8,69.6,65.6,93,69,51,30.25,30.18,7,2,7,0.00
2013-8-26,87.3,77.3,70.9,75.4,70.2,65.9,88,79,65,30.24,30.12,5,1,5,0.02
2013-8-27,92.2,80.0,73.1,74.4,71.6,68.5,93,77,51,30.15,30.01,4,0,5,0.00
2013-8-28,94.3,79.1,68.6,76.4,69.4,65.8,92,74,47,30.07,29.97,5,1,6,0.00
2013-8-29,94.9,81.7,70.2,77.9,72.4,67.4,91,75,51,30.01,29.90,7,1,8,0.00
2013-8-30,95.6,80.6,74.9,80.7,74.6,72.0,93,83,57,29.98,29.89,4,1,6,0.10
2013-8-31,91.1,79.1,72.2,81.2,74.0,70.0,95,85,67,29.98,29.88,4,1,6,0.05